KOZR/OZR METAR and TAF weather

Enter ICAO airport designator
Station Type Date Time Source
KOZR METAR 2020/01/18 12:56 UTC NOAA

KOZR 181256Z AUTO 12006KT 10SM CLR 10/07 A3034 RMK AO2 SLP277 T00990070 $


Station Type Date Time Source
KOZR Decoded METAR 2020/01/18 12:56 UTC NOAA

Cairns Army Air Field / Ozark, AL, United States (KOZR) 31-17N 085-43W
Jan 18, 2020 - 07:56 AM EST / 2020.01.18 1256 UTC
Wind: from the ESE (120 degrees) at 7 MPH (6 KT):0
Visibility: 10 mile(s):0
Sky conditions: clear
Temperature: 49.8 F (9.9 C)
Dew Point: 44.6 F (7.0 C)
Relative Humidity: 82%
Pressure (altimeter): 30.34 in. Hg (1027 hPa)
ob: KOZR 181256Z AUTO 12006KT 10SM CLR 10/07 A3034 RMK AO2 SLP277 T00990070
cycle: 13

Station Type Date Time Source
KOZR TAF 2020/01/18 00:23 UTC NOAA

TAF KOZR 180000Z 1800/1906 09009KT 9999 FEW120 QNH3035INS
BECMG 1805/1806 09012KT 9999 SCT010 BKN020 QNH3035INS
BECMG 1808/1809 09009KT 9999 BKN010 OVC020 QNH3010INS
BECMG 1816/1817 15010G15KT 9999 BKN015 OVC020 QNH3008INS
BECMG 1900/1901 19009KT 8000 -SHRA OVC003 510102 QNH3008INS TX21/1819Z TN10/1810Z LAST NO
AMDS 1807 NEXT 2108

Example: see airport list